Time;durP1;ratioP1;P1;durP2;ratioP2;P2;SDS_P1;SDS_P2;PMS_P1;PMS_P2;Temp;Humidity;BMP_temperature;BMP_pressure;BME280_temperature;BME280_humidity;BME280_pressure;Samples;Min_cycle;Max_cycle;Signal;HPM_P1;HPM_P2
2024/01/14 00:01:27;;;;;;;28.77;11.15;;;;;;;3.58;100.00;101714.59;6080498;19;21239;-74
2024/01/14 00:03:36;;;;;;;32.08;12.32;;;;;;;3.57;100.00;101711.97;6086150;19;20086;-74
2024/01/14 00:05:41;;;;;;;33.08;13.02;;;;;;;3.60;100.00;101707.66;6084981;19;21616;-73
2024/01/14 00:07:46;;;;;;;30.02;13.13;;;;;;;3.56;100.00;101692.06;6086535;19;20006;-72
2024/01/14 00:09:51;;;;;;;36.78;12.77;;;;;;;3.55;100.00;101698.97;6085668;19;20010;-72
2024/01/14 00:11:56;;;;;;;36.90;14.18;;;;;;;3.49;100.00;101693.78;6084293;19;20006;-72
2024/01/14 00:14:01;;;;;;;38.85;13.82;;;;;;;3.44;100.00;101688.56;6086609;19;20368;-72
2024/01/14 00:16:07;;;;;;;45.78;14.57;;;;;;;3.42;100.00;101695.50;6086434;19;20010;-73
2024/01/14 00:18:12;;;;;;;38.60;13.95;;;;;;;3.41;100.00;101692.88;6085782;19;19999;-72
2024/01/14 00:20:20;;;;;;;36.25;14.45;;;;;;;3.37;100.00;101691.13;6081353;19;20010;-72
2024/01/14 00:22:28;;;;;;;43.85;16.15;;;;;;;3.33;100.00;101687.66;6085117;19;20301;-73
2024/01/14 00:24:30;;;;;;;40.97;16.48;;;;;;;3.33;100.00;101685.06;6084554;19;20010;-74
2024/01/14 00:26:35;;;;;;;35.13;14.07;;;;;;;3.36;100.00;101685.06;6085656;19;20102;-72
2024/01/14 00:28:40;;;;;;;33.28;14.20;;;;;;;3.38;100.00;101698.09;6087849;19;20035;-74
2024/01/14 00:30:45;;;;;;;35.35;14.40;;;;;;;3.38;100.00;101693.75;6084253;19;20007;-73
2024/01/14 00:32:50;;;;;;;38.83;15.07;;;;;;;3.36;100.00;101697.19;6084682;19;20003;-72
2024/01/14 00:34:55;;;;;;;34.72;13.90;;;;;;;3.37;100.00;101693.72;6082467;19;20145;-73
2024/01/14 00:37:03;;;;;;;35.97;14.25;;;;;;;3.34;100.00;101683.34;6082971;19;20550;-71
2024/01/14 00:39:08;;;;;;;29.33;11.40;;;;;;;3.38;100.00;101678.16;6085004;19;20106;-72
2024/01/14 00:41:14;;;;;;;24.45;10.32;;;;;;;3.41;100.00;101674.69;6080915;19;20642;-72
2024/01/14 00:43:19;;;;;;;32.05;11.38;;;;;;;3.44;100.00;101675.56;6086574;19;20015;-72
2024/01/14 00:45:24;;;;;;;33.40;12.48;;;;;;;3.44;100.00;101662.56;6085686;19;20013;-71
2024/01/14 00:47:30;;;;;;;32.70;12.13;;;;;;;3.44;100.00;101661.72;6086985;19;20439;-71
2024/01/14 00:49:35;;;;;;;33.97;12.00;;;;;;;3.45;100.00;101655.63;6085389;19;20010;-72
2024/01/14 00:51:40;;;;;;;35.45;12.50;;;;;;;3.48;100.00;101658.28;6084788;19;20054;-71
2024/01/14 00:53:48;;;;;;;26.85;10.63;;;;;;;3.46;100.00;101653.06;6082483;19;20010;-72
2024/01/14 00:55:53;;;;;;;24.63;11.52;;;;;;;3.48;100.00;101647.88;6084909;19;20023;-73
2024/01/14 00:57:59;;;;;;;30.48;13.00;;;;;;;3.44;100.00;101646.97;6084680;19;20302;-72
2024/01/14 01:00:04;;;;;;;25.88;11.85;;;;;;;3.40;100.00;101642.66;6083464;19;20082;-73
2024/01/14 01:02:10;;;;;;;30.92;12.20;;;;;;;3.43;100.00;101642.66;6082439;19;20015;-71
2024/01/14 01:04:15;;;;;;;31.20;12.57;;;;;;;3.44;100.00;101635.72;6084777;19;20030;-71
2024/01/14 01:06:20;;;;;;;27.88;12.10;;;;;;;3.40;100.00;101634.88;6085713;19;20015;-71
2024/01/14 01:08:25;;;;;;;35.75;12.70;;;;;;;3.39;100.00;101633.13;6084976;19;20074;-72
2024/01/14 01:10:33;;;;;;;25.40;9.70;;;;;;;3.37;100.00;101637.47;6078866;19;20039;-72
2024/01/14 01:12:39;;;;;;;20.02;9.18;;;;;;;3.40;100.00;101629.66;6084051;19;20011;-71
2024/01/14 01:14:47;;;;;;;20.05;7.85;;;;;;;3.48;100.00;101633.16;6085546;19;20016;-71
2024/01/14 01:16:52;;;;;;;23.92;9.43;;;;;;;3.46;100.00;101632.28;6085463;19;20041;-72
2024/01/14 01:18:54;;;;;;;32.30;10.93;;;;;;;3.41;100.00;101625.34;6083152;19;20470;-73
2024/01/14 01:21:00;;;;;;;28.67;11.38;;;;;;;3.35;100.00;101617.53;6085412;19;20546;-72
2024/01/14 01:23:06;;;;;;;24.40;12.00;;;;;;;3.33;100.00;101614.06;6083842;19;20024;-71
2024/01/14 01:25:10;;;;;;;30.25;11.95;;;;;;;3.28;100.00;101611.44;6085378;19;20526;-70
2024/01/14 01:27:17;;;;;;;22.77;9.38;;;;;;;3.28;100.00;101603.66;6084575;19;20006;-70
2024/01/14 01:29:22;;;;;;;29.23;9.95;;;;;;;3.26;100.00;101607.97;6081062;19;20478;-71
2024/01/14 01:31:25;;;;;;;20.45;7.78;;;;;;;3.24;100.00;101600.19;6083386;19;20010;-72
2024/01/14 01:33:42;;;;;;;25.23;8.98;;;;;;;3.16;100.00;101603.63;6084712;19;20022;-72
2024/01/14 01:35:47;;;;;;;19.92;7.93;;;;;;;3.16;100.00;101599.31;6083391;19;20422;-71
2024/01/14 01:37:52;;;;;;;20.30;8.32;;;;;;;3.19;100.00;101601.06;6083885;19;20006;-71
2024/01/14 01:39:56;;;;;;;22.10;9.85;;;;;;;3.14;100.00;101595.00;6084730;19;20014;-70
2024/01/14 01:42:01;;;;;;;15.98;6.55;;;;;;;3.18;100.00;101588.91;6081646;19;20083;-71
2024/01/14 01:44:09;;;;;;;12.05;5.90;;;;;;;3.21;100.00;101588.91;6083300;19;20090;-71
2024/01/14 01:46:14;;;;;;;14.57;6.88;;;;;;;3.24;100.00;101591.56;6085234;19;20019;-71
2024/01/14 01:48:21;;;;;;;16.75;5.95;;;;;;;3.24;100.00;101592.41;6085913;19;20396;-71
2024/01/14 01:50:27;;;;;;;9.82;4.78;;;;;;;3.38;100.00;101589.81;6075965;19;20475;-71
2024/01/14 01:52:31;;;;;;;18.55;6.25;;;;;;;3.31;100.00;101595.88;6080146;19;20011;-72
2024/01/14 01:54:37;;;;;;;18.40;8.15;;;;;;;3.28;100.00;101590.69;6083488;19;20015;-71
2024/01/14 01:56:41;;;;;;;24.13;9.35;;;;;;;3.15;100.00;101592.38;6081177;19;20487;-71
2024/01/14 01:58:46;;;;;;;33.38;10.52;;;;;;;3.03;100.00;101584.56;6083713;19;20033;-71
2024/01/14 02:00:54;;;;;;;28.05;11.50;;;;;;;2.99;100.00;101586.28;6081966;19;20049;-71
2024/01/14 02:02:59;;;;;;;33.70;13.55;;;;;;;2.92;100.00;101575.88;6082351;19;20031;-71
2024/01/14 02:05:04;;;;;;;38.83;14.13;;;;;;;2.91;100.00;101571.56;6083562;19;20449;-71
2024/01/14 02:07:10;;;;;;;35.40;14.80;;;;;;;2.86;100.00;101568.94;6082725;19;20042;-70
2024/01/14 02:09:15;;;;;;;41.00;15.18;;;;;;;2.82;100.00;101564.63;6082458;19;20097;-71
2024/01/14 02:11:20;;;;;;;37.55;14.32;;;;;;;2.80;100.00;101571.53;6084251;19;20019;-70
2024/01/14 02:13:25;;;;;;;37.65;14.75;;;;;;;2.76;100.00;101582.75;6083332;19;20034;-71
2024/01/14 02:15:30;;;;;;;36.08;14.32;;;;;;;2.74;100.00;101577.56;6084934;19;20018;-71
2024/01/14 02:17:36;;;;;;;37.45;13.18;;;;;;;2.82;100.00;101582.78;6085069;19;20014;-70
2024/01/14 02:19:41;;;;;;;24.48;10.88;;;;;;;2.90;100.00;101575.00;6079543;19;20470;-70
2024/01/14 02:21:48;;;;;;;22.85;10.18;;;;;;;2.93;100.00;101570.69;6083977;19;20014;-73
2024/01/14 02:24:03;;;;;;;19.70;8.13;;;;;;;2.96;100.00;101575.03;6075897;19;20003;-71
2024/01/14 02:26:11;;;;;;;18.95;8.02;;;;;;;2.94;100.00;101569.81;6083234;19;20061;-69
2024/01/14 02:28:19;;;;;;;20.17;9.60;;;;;;;2.98;100.00;101563.78;6084036;19;20047;-70
2024/01/14 02:30:26;;;;;;;19.55;8.50;;;;;;;3.02;100.00;101565.50;6086055;19;20480;-71
2024/01/14 02:32:33;;;;;;;25.90;9.55;;;;;;;3.01;100.00;101561.19;6083085;19;20010;-71
2024/01/14 02:34:39;;;;;;;29.50;11.55;;;;;;;3.06;100.00;101554.28;6078408;19;20006;-70
2024/01/14 02:36:44;;;;;;;41.38;16.88;;;;;;;3.11;100.00;101558.59;6083407;19;20045;-71
2024/01/14 02:38:49;;;;;;;44.22;16.55;;;;;;;3.12;100.00;101562.94;6082832;19;20014;-71
2024/01/14 02:40:54;;;;;;;34.75;14.43;;;;;;;3.12;100.00;101556.03;6079140;19;20011;-70
2024/01/14 02:43:02;;;;;;;45.70;18.55;;;;;;;3.13;100.00;101556.88;6082413;19;20004;-71
2024/01/14 02:45:07;;;;;;;46.60;17.23;;;;;;;3.14;100.00;101554.28;6082893;19;20086;-72
2024/01/14 02:47:13;;;;;;;52.83;19.73;;;;;;;3.11;100.00;101541.31;6083016;19;20529;-71
2024/01/14 02:49:18;;;;;;;45.80;17.92;;;;;;;3.12;100.00;101539.56;6083682;19;20018;-71
2024/01/14 02:51:23;;;;;;;46.40;17.52;;;;;;;3.13;100.00;101546.50;6081251;19;20015;-72
2024/01/14 02:53:28;;;;;;;50.22;17.17;;;;;;;3.10;100.00;101542.16;6080101;19;20456;-73
2024/01/14 02:55:33;;;;;;;43.03;16.88;;;;;;;3.05;100.00;101536.97;6086211;19;20099;-73
2024/01/14 02:57:39;;;;;;;42.33;16.52;;;;;;;3.00;100.00;101530.03;6086402;19;20034;-70
2024/01/14 02:59:46;;;;;;;46.97;19.75;;;;;;;3.00;100.00;101528.31;6083587;19;20038;-70
2024/01/14 03:01:51;;;;;;;43.42;18.77;;;;;;;3.00;100.00;101515.34;6087035;19;20002;-70
2024/01/14 03:03:56;;;;;;;41.25;17.60;;;;;;;3.00;100.00;101520.53;6088793;19;20010;-70
2024/01/14 03:06:01;;;;;;;44.55;17.23;;;;;;;3.02;100.00;101517.91;6090254;19;20053;-69
2024/01/14 03:08:09;;;;;;;41.40;15.07;;;;;;;2.98;100.00;101517.06;6085871;19;20033;-71
2024/01/14 03:10:17;;;;;;;37.45;15.77;;;;;;;2.97;100.00;101515.31;6086440;19;20034;-71
2024/01/14 03:12:22;;;;;;;39.42;15.07;;;;;;;2.97;100.00;101510.09;6087334;19;19999;-70
2024/01/14 03:14:27;;;;;;;35.80;13.80;;;;;;;2.97;100.00;101510.09;6085690;19;20018;-71
2024/01/14 03:16:34;;;;;;;30.95;13.93;;;;;;;3.02;100.00;101505.78;6084627;19;20034;-70
2024/01/14 03:18:39;;;;;;;37.63;14.77;;;;;;;3.01;100.00;101505.81;6083529;19;20371;-72
2024/01/14 03:20:44;;;;;;;31.50;13.38;;;;;;;2.94;100.00;101502.31;6086427;19;20003;-70
2024/01/14 03:22:49;;;;;;;36.65;14.73;;;;;;;2.93;100.00;101513.59;6082374;19;20035;-70
2024/01/14 03:24:54;;;;;;;41.33;15.43;;;;;;;2.91;100.00;101509.25;6082978;19;20003;-70
2024/01/14 03:26:59;;;;;;;44.30;17.35;;;;;;;2.85;100.00;101505.78;6087635;19;20023;-70
2024/01/14 03:29:04;;;;;;;49.75;19.50;;;;;;;2.74;100.00;101507.50;6085156;19;20672;-70
2024/01/14 03:31:07;;;;;;;51.58;17.35;;;;;;;2.74;100.00;101494.50;6084691;19;20438;-71
2024/01/14 03:33:15;;;;;;;42.05;16.30;;;;;;;2.71;100.00;101493.63;6086174;19;20010;-69
2024/01/14 03:35:20;;;;;;;46.88;18.23;;;;;;;2.67;100.00;101490.16;6086073;19;20027;-70
2024/01/14 03:37:25;;;;;;;44.30;20.33;;;;;;;2.67;100.00;101492.75;6085370;19;20061;-71
2024/01/14 03:39:30;;;;;;;46.20;19.95;;;;;;;2.64;100.00;101485.84;6086029;19;20006;-70
2024/01/14 03:41:35;;;;;;;47.00;19.95;;;;;;;2.62;100.00;101473.72;6084148;19;20372;-70
2024/01/14 03:43:43;;;;;;;46.50;16.50;;;;;;;2.60;100.00;101478.03;6087692;19;20575;-71
2024/01/14 03:45:48;;;;;;;47.83;17.33;;;;;;;2.55;100.00;101483.19;6079312;19;20098;-70
2024/01/14 03:47:56;;;;;;;45.03;20.17;;;;;;;2.53;100.00;101474.56;6085731;19;20090;-70
2024/01/14 03:50:04;;;;;;;46.33;18.42;;;;;;;2.51;100.00;101470.25;6085815;19;20433;-70
2024/01/14 03:52:09;;;;;;;59.97;18.90;;;;;;;2.48;100.00;101471.09;6081910;19;20658;-69
2024/01/14 03:54:15;;;;;;;41.60;18.45;;;;;;;2.50;100.00;101464.19;6084140;19;20582;-71
2024/01/14 03:56:20;;;;;;;39.60;17.73;;;;;;;2.51;100.00;101465.91;6085142;19;20002;-71
2024/01/14 03:58:22;;;;;;;46.75;18.23;;;;;;;2.51;100.00;101462.47;6087120;19;20014;-70
2024/01/14 04:00:27;;;;;;;42.55;18.67;;;;;;;2.48;100.00;101450.34;6087052;19;20476;-70
2024/01/14 04:02:29;;;;;;;42.55;18.17;;;;;;;2.47;100.00;101461.56;6082434;19;20011;-71
2024/01/14 04:04:34;;;;;;;41.42;15.52;;;;;;;2.44;100.00;101461.56;6083680;19;20481;-70
2024/01/14 04:06:42;;;;;;;52.90;18.95;;;;;;;2.45;100.00;101452.03;6077305;19;20020;-70
2024/01/14 04:08:47;;;;;;;44.28;16.00;;;;;;;2.46;100.00;101457.25;6084304;19;20010;-70
2024/01/14 04:10:52;;;;;;;47.45;17.85;;;;;;;2.45;100.00;101457.22;6084385;19;20134;-70
2024/01/14 04:12:57;;;;;;;44.55;18.95;;;;;;;2.47;100.00;101453.78;6084408;19;20396;-70
2024/01/14 04:15:02;;;;;;;39.97;15.80;;;;;;;2.48;100.00;101452.06;6084581;19;20329;-71
2024/01/14 04:17:04;;;;;;;34.30;15.40;;;;;;;2.55;100.00;101444.28;6082445;19;20050;-70
2024/01/14 04:19:10;;;;;;;35.20;16.48;;;;;;;2.51;100.00;101447.75;6084642;19;20014;-70
2024/01/14 04:21:23;;;;;;;34.03;16.63;;;;;;;2.50;100.00;101437.34;6084139;19;20015;-71
2024/01/14 04:23:30;;;;;;;;;;;;;;;2.51;100.00;101439.97;6086552;19;20454;-69
2024/01/14 04:25:36;;;;;;;32.20;14.77;;;;;;;2.47;100.00;101429.56;6085520;19;19915;-71
2024/01/14 04:27:41;;;;;;;39.70;16.98;;;;;;;2.50;100.00;101426.97;6083060;19;20050;-70
2024/01/14 04:29:46;;;;;;;35.53;16.05;;;;;;;2.46;100.00;101428.72;6083722;19;20014;-72
2024/01/14 04:31:51;;;;;;;38.80;15.38;;;;;;;2.47;100.00;101426.97;6081928;19;20007;-71
2024/01/14 04:33:56;;;;;;;34.70;15.82;;;;;;;2.45;100.00;101427.00;6080944;19;20370;-71
2024/01/14 04:36:01;;;;;;;42.40;16.17;;;;;;;2.47;100.00;101422.66;6083827;19;20302;-71
2024/01/14 04:38:07;;;;;;;39.75;15.48;;;;;;;2.46;100.00;101417.47;6083834;19;20015;-71
2024/01/14 04:40:15;;;;;;;31.65;13.82;;;;;;;2.49;100.00;101423.53;6086202;19;20026;-71
2024/01/14 04:42:19;;;;;;;35.28;15.93;;;;;;;2.50;100.00;101420.09;6085436;19;20028;-70
2024/01/14 04:44:22;;;;;;;32.22;14.10;;;;;;;2.48;100.00;101411.44;6084188;19;20023;-70
2024/01/14 04:46:27;;;;;;;40.78;15.65;;;;;;;2.48;100.00;101411.44;6085930;19;20082;-69
2024/01/14 04:48:32;;;;;;;43.03;17.05;;;;;;;2.49;100.00;101413.16;6083134;19;20464;-70
2024/01/14 04:50:39;;;;;;;32.53;15.10;;;;;;;2.52;100.00;101410.56;6085347;19;20427;-70
2024/01/14 04:52:47;;;;;;;33.95;16.70;;;;;;;2.59;100.00;101409.72;6076210;19;20271;-70
2024/01/14 04:54:52;;;;;;;38.67;16.73;;;;;;;2.56;100.00;101407.13;6083717;19;20013;-69
2024/01/14 04:56:58;;;;;;;47.85;19.83;;;;;;;2.55;100.00;101409.69;6086077;19;20007;-73
2024/01/14 04:59:03;;;;;;;41.22;15.13;;;;;;;2.58;100.00;101396.72;6082153;19;20411;-71
2024/01/14 05:01:07;;;;;;;40.60;18.10;;;;;;;2.54;100.00;101401.06;6083020;19;20024;-69
2024/01/14 05:03:10;;;;;;;31.95;16.80;;;;;;;2.55;100.00;101394.13;6085859;19;20014;-71
2024/01/14 05:05:16;;;;;;;46.20;18.92;;;;;;;2.61;100.00;101395.03;6085829;19;20017;-69
2024/01/14 05:07:21;;;;;;;47.75;19.75;;;;;;;2.63;100.00;101390.69;6084876;19;20006;-69
2024/01/14 05:09:24;;;;;;;50.15;18.92;;;;;;;2.64;100.00;101396.75;6080754;19;20010;-71
2024/01/14 05:11:29;;;;;;;37.70;17.98;;;;;;;2.59;100.00;101385.50;6083016;19;20528;-70
2024/01/14 05:13:36;;;;;;;47.85;19.30;;;;;;;2.58;100.00;101389.84;6081937;19;20417;-70
2024/01/14 05:15:41;;;;;;;51.17;17.85;;;;;;;2.57;100.00;101384.63;6085443;19;20010;-69
2024/01/14 05:17:46;;;;;;;41.78;19.13;;;;;;;2.58;100.00;101383.75;6083374;19;20561;-71
2024/01/14 05:19:51;;;;;;;46.78;19.02;;;;;;;2.59;100.00;101386.38;6084442;19;20006;-70
2024/01/14 05:21:54;;;;;;;47.90;18.00;;;;;;;2.58;100.00;101386.34;6083969;19;20007;-71
2024/01/14 05:23:59;;;;;;;47.58;19.08;;;;;;;2.60;100.00;101385.47;6081608;19;20588;-70
2024/01/14 05:26:06;;;;;;;38.17;15.13;;;;;;;2.62;100.00;101375.97;6082033;19;20006;-72
2024/01/14 05:28:16;;;;;;;38.28;17.70;;;;;;;2.65;100.00;101380.31;6083550;19;21112;-70
2024/01/14 05:30:25;;;;;;;48.03;17.38;;;;;;;2.62;100.00;101375.97;6084679;19;20483;-69
2024/01/14 05:32:30;;;;;;;44.25;19.27;;;;;;;2.64;100.00;101366.47;6086003;19;20011;-69
2024/01/14 05:34:35;;;;;;;50.38;19.15;;;;;;;2.67;100.00;101364.75;6081115;19;20010;-70
2024/01/14 05:36:40;;;;;;;48.20;18.67;;;;;;;2.70;100.00;101368.19;6084597;19;20002;-70
2024/01/14 05:38:43;;;;;;;39.33;17.60;;;;;;;2.66;100.00;101365.59;6080063;19;20011;-70
2024/01/14 05:40:48;;;;;;;;;;;;;;;2.61;100.00;101363.88;6079566;19;20023;-70
2024/01/14 05:42:53;;;;;;;39.47;16.83;;;;;;;2.70;100.00;101363.00;6084159;19;19928;-70
2024/01/14 05:44:56;;;;;;;40.95;16.55;;;;;;;2.72;100.00;101358.69;6083504;19;20014;-71
2024/01/14 05:47:03;;;;;;;48.13;18.52;;;;;;;2.78;100.00;101353.50;6082294;19;20013;-70
2024/01/14 05:49:10;;;;;;;51.15;20.65;;;;;;;2.72;100.00;101350.06;6083082;19;20006;-68
2024/01/14 05:51:15;;;;;;;54.55;19.83;;;;;;;2.72;100.00;101344.88;6083285;19;20090;-71
2024/01/14 05:53:21;;;;;;;50.70;18.92;;;;;;;2.68;100.00;101345.72;6079337;19;20010;-70
2024/01/14 05:55:26;;;;;;;43.70;18.25;;;;;;;2.71;100.00;101345.72;6076523;19;20003;-71
2024/01/14 05:57:32;;;;;;;45.13;19.02;;;;;;;2.68;100.00;101343.13;6083475;19;20065;-72
2024/01/14 05:59:37;;;;;;;54.47;20.65;;;;;;;2.72;100.00;101347.47;6082374;19;20006;-69
2024/01/14 06:01:40;;;;;;;48.58;18.45;;;;;;;2.66;100.00;101340.53;6082280;19;20007;-69
2024/01/14 06:03:48;;;;;;;47.53;21.67;;;;;;;2.60;100.00;101340.53;6081109;19;20499;-71
2024/01/14 06:05:53;;;;;;;47.47;18.48;;;;;;;2.63;100.00;101333.63;6081791;19;20073;-71
2024/01/14 06:07:58;;;;;;;47.75;19.20;;;;;;;2.59;100.00;101331.88;6083614;19;20314;-70
2024/01/14 06:10:03;;;;;;;52.40;19.92;;;;;;;2.56;100.00;101329.28;6082617;19;20171;-70
2024/01/14 06:12:09;;;;;;;49.75;20.67;;;;;;;2.61;100.00;101327.56;6083563;19;20531;-70
2024/01/14 06:14:15;;;;;;;58.70;18.77;;;;;;;2.61;100.00;101324.09;6078473;19;20007;-71
2024/01/14 06:16:20;;;;;;;40.25;20.30;;;;;;;2.61;100.00;101326.69;6082069;19;20002;-70
2024/01/14 06:18:25;;;;;;;47.20;17.95;;;;;;;2.64;100.00;101324.09;6083685;19;20415;-71
2024/01/14 06:20:32;;;;;;;38.25;17.23;;;;;;;2.61;100.00;101324.97;6084093;19;20061;-71
2024/01/14 06:22:37;;;;;;;45.42;17.88;;;;;;;2.61;100.00;101322.38;6084797;19;20006;-70
2024/01/14 06:24:43;;;;;;;50.67;20.65;;;;;;;2.62;100.00;101316.31;6082692;19;20006;-70
2024/01/14 06:26:45;;;;;;;39.60;16.60;;;;;;;2.64;100.00;101318.91;6079963;19;20032;-70
2024/01/14 06:28:50;;;;;;;;;;;;;;;2.63;100.00;101311.97;6084405;19;20029;-69
2024/01/14 06:30:52;;;;;;;37.75;16.85;;;;;;;2.69;100.00;101305.94;6088309;19;19935;-70
2024/01/14 06:32:58;;;;;;;46.60;18.65;;;;;;;2.66;100.00;101304.22;6083186;19;20009;-69
2024/01/14 06:35:00;;;;;;;46.33;16.40;;;;;;;2.77;100.00;101305.06;6088573;19;20017;-70
2024/01/14 06:37:08;;;;;;;44.47;19.33;;;;;;;2.76;100.00;101297.25;6088843;19;20569;-70
2024/01/14 06:39:13;;;;;;;43.40;16.40;;;;;;;2.76;100.00;101302.44;6087788;19;20030;-71
2024/01/14 06:41:23;;;;;;;41.35;15.32;;;;;;;2.75;100.00;101291.22;6087581;19;20453;-71
2024/01/14 06:43:28;;;;;;;39.92;17.75;;;;;;;2.79;100.00;101292.06;6084608;19;20011;-71
2024/01/14 06:45:33;;;;;;;42.40;15.63;;;;;;;2.78;100.00;101288.63;6087232;19;20030;-72
2024/01/14 06:47:38;;;;;;;43.95;15.90;;;;;;;2.83;100.00;101293.81;6086191;19;20029;-72
2024/01/14 06:49:43;;;;;;;43.83;18.27;;;;;;;2.81;100.00;101290.34;6085935;19;20010;-69
2024/01/14 06:51:52;;;;;;;48.53;17.48;;;;;;;2.78;100.00;101287.75;6087303;19;20010;-69
2024/01/14 06:54:00;;;;;;;39.80;16.13;;;;;;;2.88;100.00;101286.88;6083224;19;20007;-69
2024/01/14 06:56:06;;;;;;;37.97;15.10;;;;;;;2.83;100.00;101286.88;6086758;19;20023;-70
2024/01/14 06:58:13;;;;;;;44.30;15.45;;;;;;;2.80;100.00;101284.28;6088293;19;20474;-69
2024/01/14 07:00:18;;;;;;;39.85;15.68;;;;;;;2.83;100.00;101286.03;6088378;19;20015;-70
2024/01/14 07:02:23;;;;;;;40.40;19.50;;;;;;;2.79;100.00;101284.28;6082102;19;20006;-70
2024/01/14 07:04:28;;;;;;;40.80;14.48;;;;;;;2.80;100.00;101283.44;6089121;19;20010;-70
2024/01/14 07:06:30;;;;;;;46.83;17.05;;;;;;;2.76;100.00;101276.50;6088153;19;20014;-70
2024/01/14 07:08:36;;;;;;;50.78;18.20;;;;;;;2.70;100.00;101282.56;6089460;19;20011;-70
2024/01/14 07:10:44;;;;;;;48.90;18.35;;;;;;;2.68;100.00;101283.44;6088605;19;20010;-70
2024/01/14 07:12:49;;;;;;;46.05;17.25;;;;;;;2.71;100.00;101283.44;6085281;19;20382;-71
2024/01/14 07:14:54;;;;;;;41.50;16.35;;;;;;;2.74;100.00;101283.41;6087132;19;20388;-70
2024/01/14 07:16:59;;;;;;;45.55;16.85;;;;;;;2.74;100.00;101284.31;6085303;19;20494;-70
2024/01/14 07:19:04;;;;;;;48.42;18.10;;;;;;;2.75;100.00;101282.56;6084423;19;20022;-69
2024/01/14 07:21:13;;;;;;;43.88;17.15;;;;;;;2.75;100.00;101282.56;6087000;19;20003;-72
2024/01/14 07:23:18;;;;;;;34.13;14.35;;;;;;;2.76;100.00;101281.69;6081812;19;20011;-70
2024/01/14 07:25:45;;;;;;;44.67;17.38;;;;;;;2.75;100.00;101285.16;6086073;19;20058;-71
2024/01/14 07:27:50;;;;;;;56.25;18.30;;;;;;;2.76;100.00;101285.16;6085764;19;20021;-70
2024/01/14 07:29:55;;;;;;;43.55;16.77;;;;;;;2.71;100.00;101280.84;6084008;19;20007;-70
2024/01/14 07:32:00;;;;;;;39.67;14.63;;;;;;;2.72;100.00;101280.00;6086191;19;20014;-71
2024/01/14 07:34:07;;;;;;;42.45;18.95;;;;;;;2.70;100.00;101282.56;6085100;19;20072;-69
2024/01/14 07:36:13;;;;;;;40.53;17.80;;;;;;;2.70;100.00;101282.56;6086596;19;20933;-70
2024/01/14 07:38:18;;;;;;;48.05;17.33;;;;;;;2.70;100.00;101273.94;6084097;19;20007;-70
2024/01/14 07:40:23;;;;;;;49.78;16.85;;;;;;;2.73;100.00;101282.56;6085992;19;20353;-70
2024/01/14 07:42:31;;;;;;;48.53;15.10;;;;;;;2.69;100.00;101283.44;6087270;19;20014;-71
2024/01/14 07:44:34;;;;;;;41.20;15.02;;;;;;;2.70;100.00;101281.72;6086585;19;20011;-70
2024/01/14 07:46:39;;;;;;;42.80;15.50;;;;;;;2.68;100.00;101278.25;6087065;19;20017;-69
2024/01/14 07:48:45;;;;;;;42.15;16.67;;;;;;;2.68;100.00;101279.09;6083154;19;20006;-71
2024/01/14 07:50:50;;;;;;;36.30;15.65;;;;;;;2.67;100.00;101276.53;6085214;19;20034;-68
2024/01/14 07:52:55;;;;;;;41.08;16.30;;;;;;;2.67;100.00;101276.53;6079699;19;20356;-70
2024/01/14 07:55:00;;;;;;;50.03;19.33;;;;;;;2.63;100.00;101281.72;6085723;19;20030;-69
2024/01/14 07:57:05;;;;;;;48.58;19.30;;;;;;;2.66;100.00;101274.78;6087909;19;20014;-71
2024/01/14 07:59:15;;;;;;;41.83;16.23;;;;;;;2.62;100.00;101272.19;6085358;19;20077;-69
2024/01/14 08:01:19;;;;;;;54.20;19.42;;;;;;;2.61;100.00;101273.06;6079122;19;20018;-71
2024/01/14 08:03:25;;;;;;;44.28;20.35;;;;;;;2.58;100.00;101282.56;6085828;19;20020;-71
2024/01/14 08:05:30;;;;;;;48.42;18.13;;;;;;;2.57;100.00;101278.25;6087977;19;20027;-70
2024/01/14 08:07:35;;;;;;;47.97;18.27;;;;;;;2.66;100.00;101279.97;6085312;19;20308;-70
2024/01/14 08:09:42;;;;;;;43.33;19.40;;;;;;;2.63;100.00;101278.25;6087172;19;20157;-70
2024/01/14 08:11:47;;;;;;;55.20;18.50;;;;;;;2.62;100.00;101276.53;6082635;19;20471;-71
2024/01/14 08:13:52;;;;;;;41.30;18.80;;;;;;;2.62;100.00;101279.97;6085824;19;20006;-71
2024/01/14 08:16:00;;;;;;;52.88;20.83;;;;;;;2.68;100.00;101275.66;6084380;19;20102;-71
2024/01/14 08:18:08;;;;;;;44.83;19.08;;;;;;;2.64;100.00;101275.66;6085601;19;20024;-71
2024/01/14 08:20:17;;;;;;;50.65;17.40;;;;;;;2.69;100.00;101275.66;6083986;19;20035;-70
2024/01/14 08:22:22;;;;;;;51.97;18.90;;;;;;;2.69;100.00;101278.25;6086166;19;20090;-70
2024/01/14 08:24:27;;;;;;;54.25;22.50;;;;;;;2.72;100.00;101274.78;6083664;19;20002;-71
2024/01/14 08:26:35;;;;;;;44.03;16.73;;;;;;;2.74;100.00;101278.22;6082144;19;20053;-72
2024/01/14 08:28:40;;;;;;;45.47;17.85;;;;;;;2.77;100.00;101276.50;6084064;19;19999;-71
2024/01/14 08:30:45;;;;;;;54.75;18.60;;;;;;;2.81;100.00;101272.16;6085046;19;20010;-71
2024/01/14 08:32:53;;;;;;;40.13;18.08;;;;;;;2.88;100.00;101266.13;6086091;19;20605;-72
2024/01/14 08:34:58;;;;;;;47.75;19.40;;;;;;;2.91;100.00;101267.84;6086245;19;20010;-70
2024/01/14 08:37:03;;;;;;;50.13;20.33;;;;;;;2.94;100.00;101270.44;6083693;19;20009;-71
2024/01/14 08:39:09;;;;;;;49.83;18.20;;;;;;;2.96;100.00;101271.28;6082899;19;20011;-71
2024/01/14 08:41:14;;;;;;;46.78;18.23;;;;;;;2.96;100.00;101264.34;6083237;19;20384;-71
2024/01/14 08:43:19;;;;;;;47.42;18.48;;;;;;;2.98;100.00;101262.63;6084192;19;20007;-71
2024/01/14 08:45:24;;;;;;;59.55;20.00;;;;;;;2.97;100.00;101260.88;6082349;19;20515;-70
2024/01/14 08:47:29;;;;;;;39.00;15.43;;;;;;;3.03;100.00;101253.09;6088410;19;20007;-72
2024/01/14 08:49:37;;;;;;;44.38;17.02;;;;;;;3.04;100.00;101246.16;6087594;19;20015;-73
2024/01/14 08:51:42;;;;;;;48.50;17.85;;;;;;;3.06;100.00;101245.28;6085316;19;20014;-71
2024/01/14 08:53:48;;;;;;;56.88;17.48;;;;;;;3.08;100.00;101247.88;6080655;19;20004;-72
2024/01/14 08:55:53;;;;;;;32.50;15.40;;;;;;;3.06;100.00;101237.50;6086918;19;20470;-70
2024/01/14 08:57:59;;;;;;;48.47;17.75;;;;;;;3.13;100.00;101240.94;6085632;19;20011;-71
2024/01/14 09:00:04;;;;;;;38.33;14.65;;;;;;;3.21;100.00;101234.00;6086275;19;20014;-71
2024/01/14 09:02:07;;;;;;;42.55;17.00;;;;;;;3.21;100.00;101228.81;6086372;19;20336;-71
2024/01/14 09:04:12;;;;;;;45.50;15.82;;;;;;;3.24;100.00;101230.53;6085002;19;20042;-70
2024/01/14 09:06:20;;;;;;;40.45;16.38;;;;;;;3.24;100.00;101233.13;6085943;19;20031;-70
2024/01/14 09:08:25;;;;;;;54.65;21.05;;;;;;;3.26;100.00;101226.16;6088230;19;20015;-70
2024/01/14 09:10:31;;;;;;;49.42;17.00;;;;;;;3.28;100.00;101222.69;6084928;19;20006;-71
2024/01/14 09:12:33;;;;;;;37.95;16.17;;;;;;;3.32;100.00;101220.09;6085046;19;20014;-70
2024/01/14 09:14:39;;;;;;;33.20;14.98;;;;;;;3.35;100.00;101212.31;6087104;19;20021;-70
2024/01/14 09:16:44;;;;;;;46.50;16.13;;;;;;;3.36;100.00;101216.63;6086116;19;20564;-70
2024/01/14 09:18:49;;;;;;;49.58;18.98;;;;;;;3.33;100.00;101209.69;6084192;19;20010;-70
2024/01/14 09:20:54;;;;;;;36.22;13.93;;;;;;;3.37;100.00;101208.81;6086502;19;20011;-71
2024/01/14 09:23:01;;;;;;;42.80;16.73;;;;;;;3.39;100.00;101208.81;6087234;19;20545;-70
2024/01/14 09:25:04;;;;;;;43.88;18.50;;;;;;;3.34;100.00;101203.63;6088156;19;20345;-71
2024/01/14 09:27:10;;;;;;;42.00;18.85;;;;;;;3.33;100.00;101204.50;6087094;19;20010;-72
2024/01/14 09:29:13;;;;;;;44.25;19.00;;;;;;;3.31;100.00;101203.63;6079907;19;20018;-70
2024/01/14 09:31:17;;;;;;;44.10;15.55;;;;;;;3.32;100.00;101205.38;6084654;19;20121;-70
2024/01/14 09:33:22;;;;;;;50.70;18.30;;;;;;;3.31;100.00;101206.25;6083963;19;20014;-70